CheckWX is a tool to help pilots better visualize weather data.  It is not intended as a substitute for an official pre-flight weather briefing.

11:06:20 UTC

EGKK TAF
London Gatwick Airport
London, United Kingdom
TAF EGKK 240504Z 2406/2512 31006KT 9999 FEW045 PROB30 TEMPO 2414/2422 6000 SHRA PROB30 2500/2506 8000 PROB30 TEMPO 2510/2512 6000 SHRA

May-24@
06:00 UTC

May-24 @ 06:00 UTC

May-25@
12:00 UTC

May-25 @ 12:00 UTC

TAF EGKK 240504Z 2406/2512 31006KT 9999 FEW045
Wind
  • 310° at 6 KTS
Cloud Levels
  • Few at 4,500' AGL

May-24@
14:00 UTC

May-24 @ 14:00 UTC

May-24@
22:00 UTC

May-24 @ 22:00 UTC

PROB30 TEMPO 2414/2422 6000 SHRA

Temporary - 30% Likelihood

Temporary - 30% Likelihood during this time.

Conditions
Rain

May-25@
00:00 UTC

May-25 @ 00:00 UTC

May-25@
06:00 UTC

May-25 @ 06:00 UTC

PROB30 2500/2506 8000

Probable - 30% Likelihood

Probable - 30% Likelihood during this time.

May-25@
10:00 UTC

May-25 @ 10:00 UTC

May-25@
12:00 UTC

May-25 @ 12:00 UTC

PROB30 TEMPO 2510/2512 6000 SHRA

Temporary - 30% Likelihood

Temporary - 30% Likelihood during this time.

Conditions
Rain